| Date | Time | Temp. (oF) | Dew Point (oF) | Rel. Hum. (%) | Press. (in.) | Wind Dir. | Wind Speed (mph) | Hourly Rainfall (in.) |
|
|---|---|---|---|---|---|---|---|---|---|
| 1 | 10/28 | 00:00 | 50 | 43 | 78 | 30.32 | ENE | 4 | 0.00 |
| 2 | 10/27 | 23:00 | 50 | 43 | 77 | 30.33 | SE | 3 | 0.00 |
| 3 | 10/27 | 22:00 | 51 | 42 | 74 | 30.34 | ESE | 4 | 0.00 |
| 4 | 10/27 | 21:00 | 52 | 43 | 72 | 30.34 | E | 11 | 0.00 |
| 5 | 10/27 | 20:00 | 53 | 43 | 71 | 30.35 | ESE | 3 | 0.00 |
| 6 | 10/27 | 19:00 | 53 | 43 | 71 | 30.34 | E | 3 | 0.00 |
| 7 | 10/27 | 18:00 | 55 | 44 | 67 | 30.32 | E | 2 | 0.00 |
| 8 | 10/27 | 17:00 | 56 | 43 | 64 | 30.34 | ESE | 2 | 0.00 |
| 9 | 10/27 | 16:00 | 57 | 44 | 64 | 30.34 | ESE | 6 | 0.00 |
| 10 | 10/27 | 15:00 | 57 | 44 | 62 | 30.35 | E | 0 | 0.00 |
| 11 | 10/27 | 14:00 | 57 | 44 | 62 | 30.38 | SE | 6 | 0.00 |
| 12 | 10/27 | 13:00 | 56 | 43 | 63 | 30.41 | E | 4 | 0.00 |
| 13 | 10/27 | 12:00 | 51 | 41 | 69 | 30.45 | SE | 2 | 0.00 |
| 14 | 10/27 | 11:00 | 48 | 42 | 81 | 30.47 | ESE | 3 | 0.00 |
| 15 | 10/27 | 10:00 | 41 | 38 | 90 | 30.48 | NNE | 0 | 0.00 |
| 16 | 10/27 | 09:00 | 35 | 32 | 91 | 30.47 | S | 0 | 0.00 |
| 17 | 10/27 | 08:00 | 32 | 29 | 91 | 30.44 | S | 0 | 0.00 |
| 18 | 10/27 | 07:00 | 32 | 29 | 90 | 30.43 | S | 0 | 0.00 |
| 19 | 10/27 | 06:00 | 32 | 29 | 90 | 30.42 | S | 0 | 0.00 |
| 20 | 10/27 | 05:00 | 33 | 30 | 90 | 30.41 | S | 0 | 0.00 |
| 21 | 10/27 | 04:00 | 32 | 29 | 89 | 30.41 | ENE | 0 | 0.00 |
| 22 | 10/27 | 03:00 | 33 | 29 | 88 | 30.41 | S | 0 | 0.00 |
| 23 | 10/27 | 02:00 | 34 | 30 | 88 | 30.43 | S | 0 | 0.00 |
| 24 | 10/27 | 01:00 | 35 | 30 | 85 | 30.42 | SW | 0 | 0.00 |